Time;durP1;ratioP1;P1;durP2;ratioP2;P2;SDS_P1;SDS_P2;PMS_P1;PMS_P2;Temp;Humidity;BMP_temperature;BMP_pressure;BME280_temperature;BME280_humidity;BME280_pressure;Samples;Min_cycle;Max_cycle;Signal;HPM_P1;HPM_P2
2021/05/09 00:02:26;;;;;;;0.70;0.57;;;;;;;;;;5030625;28;20424;-77
2021/05/09 00:04:52;;;;;;;1.67;0.87;;;;;;;;;;5029284;28;20984;-76
2021/05/09 00:07:18;;;;;;;0.80;0.60;;;;;;;;;;5030802;28;20447;-75
2021/05/09 00:09:44;;;;;;;0.80;0.60;;;;;;;;;;5030301;28;20396;-75
2021/05/09 00:12:11;;;;;;;1.47;0.97;;;;;;;;;;5030627;28;20839;-75
2021/05/09 00:14:37;;;;;;;3.57;1.57;;;;;;;;;;5030213;28;20431;-75
2021/05/09 00:17:03;;;;;;;1.17;1.00;;;;;;;;;;5030326;28;20419;-75
2021/05/09 00:19:29;;;;;;;1.93;0.80;;;;;;;;;;5029654;28;20884;-74
2021/05/09 00:21:55;;;;;;;0.80;0.70;;;;;;;;;;5030502;28;20807;-74
2021/05/09 00:24:21;;;;;;;0.90;0.63;;;;;;;;;;5030454;28;20791;-75
2021/05/09 00:26:47;;;;;;;1.07;0.50;;;;;;;;;;5029061;28;20469;-77
2021/05/09 00:29:13;;;;;;;0.80;0.50;;;;;;;;;;5030125;28;20917;-76
2021/05/09 00:31:39;;;;;;;1.00;0.60;;;;;;;;;;5030312;28;20411;-76
2021/05/09 00:34:05;;;;;;;0.70;0.50;;;;;;;;;;5032430;28;20896;-76
2021/05/09 00:36:33;;;;;;;0.93;0.80;;;;;;;;;;5034002;28;20422;-75
2021/05/09 00:38:59;;;;;;;0.90;0.70;;;;;;;;;;5033921;28;20420;-75
2021/05/09 00:41:25;;;;;;;1.47;0.90;;;;;;;;;;5033782;28;20947;-74
2021/05/09 00:43:51;;;;;;;0.97;0.70;;;;;;;;;;5033684;28;20832;-73
2021/05/09 00:46:17;;;;;;;1.33;0.70;;;;;;;;;;5032149;28;20382;-75
2021/05/09 00:48:43;;;;;;;0.80;0.63;;;;;;;;;;5032321;28;20828;-76
2021/05/09 00:51:09;;;;;;;1.50;0.97;;;;;;;;;;5031967;28;20511;-76
2021/05/09 00:53:35;;;;;;;0.83;0.70;;;;;;;;;;5031974;28;20423;-77
2021/05/09 00:56:02;;;;;;;0.80;0.60;;;;;;;;;;5033654;28;20415;-76
2021/05/09 00:58:30;;;;;;;0.93;0.70;;;;;;;;;;5033695;28;20447;-78
2021/05/09 01:00:56;;;;;;;0.80;0.60;;;;;;;;;;5037724;28;20957;-75
2021/05/09 01:03:27;;;;;;;0.73;0.60;;;;;;;;;;5033254;28;20590;-76
2021/05/09 01:05:54;;;;;;;0.87;0.87;;;;;;;;;;5032287;28;20432;-76
2021/05/09 01:08:20;;;;;;;0.90;0.80;;;;;;;;;;5033582;28;20404;-78
2021/05/09 01:10:46;;;;;;;0.77;0.70;;;;;;;;;;5033474;28;20449;-75
2021/05/09 01:13:12;;;;;;;1.40;0.80;;;;;;;;;;5034841;28;20400;-75
2021/05/09 01:15:38;;;;;;;1.47;1.20;;;;;;;;;;5037808;28;20416;-77
2021/05/09 01:18:04;;;;;;;0.70;0.50;;;;;;;;;;5039904;28;20411;-76
2021/05/09 01:20:30;;;;;;;1.33;0.70;;;;;;;;;;5040515;28;20404;-78
2021/05/09 01:22:56;;;;;;;1.67;1.00;;;;;;;;;;5042098;28;20498;-77
2021/05/09 01:25:22;;;;;;;0.73;0.60;;;;;;;;;;5040163;28;20565;-76
2021/05/09 01:27:48;;;;;;;2.40;0.70;;;;;;;;;;5035122;28;20391;-75
2021/05/09 01:30:16;;;;;;;1.23;0.70;;;;;;;;;;5037707;28;20386;-78
2021/05/09 01:32:42;;;;;;;1.20;0.70;;;;;;;;;;5043574;28;20424;-77
2021/05/09 01:35:08;;;;;;;2.03;0.63;;;;;;;;;;5035806;28;20443;-76
2021/05/09 01:37:37;;;;;;;1.10;0.70;;;;;;;;;;5035240;28;20379;-76
2021/05/09 01:40:04;;;;;;;1.10;0.80;;;;;;;;;;5040263;28;20831;-74
2021/05/09 01:42:29;;;;;;;0.90;0.60;;;;;;;;;;5035179;28;20514;-74
2021/05/09 01:44:56;;;;;;;1.00;0.70;;;;;;;;;;5035885;28;20876;-76
2021/05/09 01:47:23;;;;;;;1.50;1.10;;;;;;;;;;5034415;28;20522;-75
2021/05/09 01:49:49;;;;;;;0.80;0.60;;;;;;;;;;5034941;28;20446;-77
2021/05/09 01:52:15;;;;;;;3.80;1.10;;;;;;;;;;5035903;28;20434;-73
2021/05/09 01:54:41;;;;;;;5.87;0.80;;;;;;;;;;5050806;28;20466;-73
2021/05/09 01:57:07;;;;;;;0.80;0.70;;;;;;;;;;5033319;28;20922;-73
2021/05/09 01:59:33;;;;;;;0.80;0.63;;;;;;;;;;5032832;28;20756;-74
2021/05/09 02:01:59;;;;;;;2.77;1.23;;;;;;;;;;5032847;28;20400;-74
2021/05/09 02:04:25;;;;;;;4.13;0.90;;;;;;;;;;5031485;28;20403;-73
2021/05/09 02:06:51;;;;;;;1.40;1.17;;;;;;;;;;5032492;28;20768;-74
2021/05/09 02:09:17;;;;;;;1.87;0.90;;;;;;;;;;5032240;28;20395;-74
2021/05/09 02:11:43;;;;;;;0.90;0.60;;;;;;;;;;5034341;28;20415;-75
2021/05/09 02:14:09;;;;;;;1.10;1.00;;;;;;;;;;5040872;28;20411;-76
2021/05/09 02:16:35;;;;;;;1.80;0.80;;;;;;;;;;5057129;28;20488;-78
2021/05/09 02:19:01;;;;;;;1.10;0.80;;;;;;;;;;5040420;28;20434;-78
2021/05/09 02:21:31;;;;;;;3.57;1.03;;;;;;;;;;5052832;28;20472;-75
2021/05/09 02:23:57;;;;;;;1.10;1.00;;;;;;;;;;5032339;28;20946;-76
2021/05/09 02:26:23;;;;;;;1.00;0.80;;;;;;;;;;5032623;28;20382;-76
2021/05/09 02:28:49;;;;;;;2.03;0.80;;;;;;;;;;5032455;28;20375;-75
2021/05/09 02:31:15;;;;;;;1.00;0.60;;;;;;;;;;5032262;28;20394;-75
2021/05/09 02:33:41;;;;;;;1.00;0.90;;;;;;;;;;5031642;28;20395;-75
2021/05/09 02:36:07;;;;;;;4.20;1.13;;;;;;;;;;5038827;28;20816;-75
2021/05/09 02:38:33;;;;;;;0.80;0.63;;;;;;;;;;5050557;28;20843;-74
2021/05/09 02:40:59;;;;;;;1.30;1.20;;;;;;;;;;5040525;28;20430;-74
2021/05/09 02:43:28;;;;;;;1.10;0.80;;;;;;;;;;5031795;28;20450;-75
2021/05/09 02:45:54;;;;;;;1.20;1.10;;;;;;;;;;5029919;28;20450;-75
2021/05/09 02:48:20;;;;;;;0.83;0.83;;;;;;;;;;5029776;28;20499;-75
2021/05/09 02:50:48;;;;;;;0.90;0.70;;;;;;;;;;5030060;28;20554;-75
2021/05/09 02:53:14;;;;;;;0.73;0.60;;;;;;;;;;5030028;28;20473;-74
2021/05/09 02:55:40;;;;;;;1.43;0.70;;;;;;;;;;5031520;28;20478;-74
2021/05/09 02:58:08;;;;;;;1.67;0.90;;;;;;;;;;5031147;28;20406;-75
2021/05/09 03:00:34;;;;;;;1.27;0.60;;;;;;;;;;5031178;28;20780;-74
2021/05/09 03:03:00;;;;;;;1.00;0.80;;;;;;;;;;5031451;28;20451;-74
2021/05/09 03:05:28;;;;;;;0.83;0.53;;;;;;;;;;5031316;28;20413;-74
2021/05/09 03:07:54;;;;;;;1.20;1.00;;;;;;;;;;5031015;28;20465;-74
2021/05/09 03:10:20;;;;;;;1.57;1.00;;;;;;;;;;5029504;28;20501;-73
2021/05/09 03:12:46;;;;;;;1.17;1.00;;;;;;;;;;5031405;28;20429;-74
2021/05/09 03:15:12;;;;;;;1.00;0.60;;;;;;;;;;5029880;28;20549;-73
2021/05/09 03:17:38;;;;;;;1.80;0.80;;;;;;;;;;5031079;28;20394;-73
2021/05/09 03:20:05;;;;;;;1.47;1.10;;;;;;;;;;5029684;28;20378;-72
2021/05/09 03:22:33;;;;;;;2.70;1.03;;;;;;;;;;5030978;28;20461;-73
2021/05/09 03:25:03;;;;;;;1.13;1.03;;;;;;;;;;5031188;28;20443;-74
2021/05/09 03:27:29;;;;;;;7.60;0.83;;;;;;;;;;5029968;28;20404;-75
2021/05/09 03:29:55;;;;;;;1.93;1.80;;;;;;;;;;5031259;28;20810;-74
2021/05/09 03:32:21;;;;;;;1.07;0.97;;;;;;;;;;5031220;28;20445;-76
2021/05/09 03:34:47;;;;;;;1.00;0.90;;;;;;;;;;5029367;28;20779;-75
2021/05/09 03:37:16;;;;;;;1.23;0.70;;;;;;;;;;5031141;28;20458;-75
2021/05/09 03:39:42;;;;;;;1.20;1.10;;;;;;;;;;5030789;28;20746;-75
2021/05/09 03:42:10;;;;;;;1.10;1.00;;;;;;;;;;5030830;28;20502;-74
2021/05/09 03:44:36;;;;;;;0.80;0.60;;;;;;;;;;5030698;28;20418;-75
2021/05/09 03:47:02;;;;;;;1.43;1.20;;;;;;;;;;5030821;28;20465;-75
2021/05/09 03:49:30;;;;;;;0.70;0.57;;;;;;;;;;5030386;28;20383;-75
2021/05/09 03:51:58;;;;;;;1.00;0.90;;;;;;;;;;5030767;28;20510;-74
2021/05/09 03:54:27;;;;;;;0.90;0.80;;;;;;;;;;5030433;28;20768;-75
2021/05/09 03:56:55;;;;;;;1.17;0.60;;;;;;;;;;5030362;28;20406;-73
2021/05/09 03:59:21;;;;;;;1.27;0.93;;;;;;;;;;5030259;28;20724;-74
2021/05/09 04:01:47;;;;;;;1.20;0.80;;;;;;;;;;5030537;28;20378;-73
2021/05/09 04:04:13;;;;;;;1.40;1.10;;;;;;;;;;5036504;28;20466;-75
2021/05/09 04:06:39;;;;;;;0.77;0.60;;;;;;;;;;5039701;28;20597;-78
2021/05/09 04:09:08;;;;;;;0.80;0.60;;;;;;;;;;5041119;28;20383;-76
2021/05/09 04:11:34;;;;;;;1.47;0.90;;;;;;;;;;5042093;28;20426;-76
2021/05/09 04:14:00;;;;;;;1.93;1.07;;;;;;;;;;5044404;28;20402;-76
2021/05/09 04:16:26;;;;;;;3.67;1.40;;;;;;;;;;5039784;28;20441;-75
2021/05/09 04:18:52;;;;;;;5.13;1.10;;;;;;;;;;5042998;28;20407;-76
2021/05/09 04:21:21;;;;;;;1.20;0.70;;;;;;;;;;5043781;28;21029;-77
2021/05/09 04:23:47;;;;;;;3.03;1.00;;;;;;;;;;5042992;28;20871;-77
2021/05/09 04:26:13;;;;;;;1.23;0.90;;;;;;;;;;5040865;28;20394;-76
2021/05/09 04:28:39;;;;;;;0.70;0.60;;;;;;;;;;5043796;28;20416;-75
2021/05/09 04:31:05;;;;;;;0.90;0.80;;;;;;;;;;5053962;28;21022;-74
2021/05/09 04:33:31;;;;;;;1.10;1.00;;;;;;;;;;5054231;28;20377;-76
2021/05/09 04:35:57;;;;;;;0.80;0.70;;;;;;;;;;5052528;28;20477;-75
2021/05/09 04:38:25;;;;;;;0.90;0.67;;;;;;;;;;5032702;28;20432;-77
2021/05/09 04:40:51;;;;;;;3.17;0.93;;;;;;;;;;5040923;28;20447;-77
2021/05/09 04:43:18;;;;;;;0.80;0.70;;;;;;;;;;5043824;28;20521;-75
2021/05/09 04:45:48;;;;;;;1.50;1.03;;;;;;;;;;5035479;28;20463;-73
2021/05/09 04:48:14;;;;;;;1.20;1.00;;;;;;;;;;5030483;28;20775;-75
2021/05/09 04:50:40;;;;;;;1.10;1.00;;;;;;;;;;5032826;28;20385;-76
2021/05/09 04:53:21;;;;;;;1.20;0.90;;;;;;;;;;5031447;28;20387;-76
2021/05/09 04:55:47;;;;;;;0.80;0.80;;;;;;;;;;5036776;28;20438;-78
2021/05/09 04:58:13;;;;;;;0.77;0.60;;;;;;;;;;5042127;28;20458;-77
2021/05/09 05:00:39;;;;;;;1.00;0.70;;;;;;;;;;5031128;28;20387;-77
2021/05/09 05:03:05;;;;;;;1.07;0.50;;;;;;;;;;5031466;28;20507;-76
2021/05/09 05:05:31;;;;;;;1.97;1.20;;;;;;;;;;5032632;28;20406;-76
2021/05/09 05:07:57;;;;;;;0.80;0.60;;;;;;;;;;5033292;28;20405;-76
2021/05/09 05:10:23;;;;;;;0.90;0.80;;;;;;;;;;5032595;28;20403;-77
2021/05/09 05:12:49;;;;;;;0.80;0.80;;;;;;;;;;5031658;28;20427;-76
2021/05/09 05:15:15;;;;;;;0.80;0.60;;;;;;;;;;5031311;28;20416;-78
2021/05/09 05:17:41;;;;;;;1.67;0.83;;;;;;;;;;5032711;28;20407;-76
2021/05/09 05:20:07;;;;;;;4.30;0.90;;;;;;;;;;5032698;28;20429;-75
2021/05/09 05:22:33;;;;;;;1.00;0.90;;;;;;;;;;5032834;28;20430;-76
2021/05/09 05:24:59;;;;;;;0.80;0.70;;;;;;;;;;5031567;28;20430;-75
2021/05/09 05:27:25;;;;;;;0.80;0.60;;;;;;;;;;5032608;28;20394;-75
2021/05/09 05:29:53;;;;;;;1.20;0.83;;;;;;;;;;5031945;28;20368;-75
2021/05/09 05:32:19;;;;;;;1.43;0.90;;;;;;;;;;5031430;28;20392;-77
2021/05/09 05:34:45;;;;;;;1.00;0.90;;;;;;;;;;5031101;28;20932;-76
2021/05/09 05:37:11;;;;;;;1.07;0.83;;;;;;;;;;5031187;28;20455;-76
2021/05/09 05:39:37;;;;;;;0.90;0.70;;;;;;;;;;5032045;28;20394;-75
2021/05/09 05:42:03;;;;;;;0.80;0.70;;;;;;;;;;5032296;28;20404;-76
2021/05/09 05:44:29;;;;;;;0.90;0.80;;;;;;;;;;5032546;28;20495;-76
2021/05/09 05:46:55;;;;;;;1.30;1.10;;;;;;;;;;5032222;28;20402;-76
2021/05/09 05:49:21;;;;;;;1.43;1.10;;;;;;;;;;5031833;28;20397;-76
2021/05/09 05:51:47;;;;;;;0.90;0.77;;;;;;;;;;5043138;28;20745;-75
2021/05/09 05:54:14;;;;;;;0.80;0.60;;;;;;;;;;5038816;28;20456;-76
2021/05/09 05:56:40;;;;;;;0.90;0.70;;;;;;;;;;5050478;28;20497;-76
2021/05/09 05:59:06;;;;;;;2.30;1.00;;;;;;;;;;5038240;28;20484;-77
2021/05/09 06:01:32;;;;;;;1.87;1.00;;;;;;;;;;5031002;28;20882;-76
2021/05/09 06:03:58;;;;;;;1.00;0.60;;;;;;;;;;5030758;28;21050;-76
2021/05/09 06:06:24;;;;;;;1.33;1.17;;;;;;;;;;5032083;28;20405;-74
2021/05/09 06:08:53;;;;;;;1.37;0.80;;;;;;;;;;5031901;28;20760;-75
2021/05/09 06:11:22;;;;;;;0.83;0.77;;;;;;;;;;5035751;28;20677;-76
2021/05/09 06:13:47;;;;;;;0.93;0.77;;;;;;;;;;5043907;28;20928;-74
2021/05/09 06:16:13;;;;;;;0.70;0.57;;;;;;;;;;5038336;28;20380;-74
2021/05/09 06:18:39;;;;;;;0.93;0.83;;;;;;;;;;5042271;28;20424;-75
2021/05/09 06:21:10;;;;;;;0.83;0.57;;;;;;;;;;5040216;28;20396;-73
2021/05/09 06:23:38;;;;;;;0.80;0.80;;;;;;;;;;5040983;28;20569;-74
2021/05/09 06:26:04;;;;;;;219.43;162.53;;;;;;;;;;5041193;28;20388;-75
2021/05/09 06:28:30;;;;;;;1.00;0.70;;;;;;;;;;5037425;28;20411;-73
2021/05/09 06:30:56;;;;;;;1.00;0.70;;;;;;;;;;5040089;28;20407;-76
2021/05/09 06:33:22;;;;;;;0.83;0.83;;;;;;;;;;5039992;28;20396;-75
2021/05/09 06:35:51;;;;;;;0.80;0.73;;;;;;;;;;5039705;28;20421;-75
2021/05/09 06:38:16;;;;;;;0.83;0.63;;;;;;;;;;5041479;28;20397;-75
2021/05/09 06:40:43;;;;;;;0.90;0.70;;;;;;;;;;5042901;28;21092;-76
2021/05/09 06:43:11;;;;;;;0.70;0.60;;;;;;;;;;5037873;28;20455;-75
2021/05/09 06:45:37;;;;;;;0.80;0.70;;;;;;;;;;5039067;28;20453;-75
2021/05/09 06:48:05;;;;;;;0.90;0.60;;;;;;;;;;5037071;28;20425;-74
2021/05/09 06:50:32;;;;;;;2.90;2.20;;;;;;;;;;5043295;28;20733;-75
2021/05/09 06:52:59;;;;;;;1.30;0.73;;;;;;;;;;5045400;28;20446;-76
2021/05/09 06:55:27;;;;;;;1.10;0.70;;;;;;;;;;5023761;28;20429;-76
2021/05/09 06:57:53;;;;;;;1.10;0.90;;;;;;;;;;5043299;28;20453;-76
2021/05/09 07:00:20;;;;;;;0.80;0.70;;;;;;;;;;5046090;28;20414;-76
2021/05/09 07:02:46;;;;;;;0.80;0.60;;;;;;;;;;5044607;28;20443;-73
2021/05/09 07:05:12;;;;;;;1.23;1.13;;;;;;;;;;5044652;28;20447;-76
2021/05/09 07:07:48;;;;;;;1.00;0.87;;;;;;;;;;5042043;28;20491;-76
2021/05/09 07:10:14;;;;;;;1.03;0.73;;;;;;;;;;5040180;28;20446;-77
2021/05/09 07:12:43;;;;;;;1.07;0.97;;;;;;;;;;5044207;28;20450;-76
2021/05/09 07:15:10;;;;;;;1.57;0.87;;;;;;;;;;5041698;28;20427;-73
2021/05/09 07:17:36;;;;;;;2.00;0.77;;;;;;;;;;5039997;28;20401;-75
2021/05/09 07:20:03;;;;;;;1.30;0.97;;;;;;;;;;5044153;28;20506;-72
2021/05/09 07:22:53;;;;;;;0.80;0.60;;;;;;;;;;5030203;28;20486;-72
2021/05/09 07:25:18;;;;;;;0.80;0.60;;;;;;;;;;5032798;28;20486;-72
2021/05/09 07:27:47;;;;;;;1.20;1.07;;;;;;;;;;5040803;28;20412;-73
2021/05/09 07:30:15;;;;;;;0.80;0.70;;;;;;;;;;5029645;28;20456;-71
2021/05/09 07:32:41;;;;;;;0.77;0.60;;;;;;;;;;5030838;28;20486;-72
2021/05/09 07:35:07;;;;;;;0.80;0.70;;;;;;;;;;5047336;28;20423;-72
2021/05/09 07:37:33;;;;;;;1.00;0.90;;;;;;;;;;5032133;28;20399;-72
2021/05/09 07:39:59;;;;;;;0.80;0.63;;;;;;;;;;5029827;28;20419;-72
2021/05/09 07:42:27;;;;;;;1.23;0.70;;;;;;;;;;5029183;28;20605;-72
2021/05/09 07:44:57;;;;;;;1.07;0.60;;;;;;;;;;5029418;28;20531;-73
2021/05/09 07:47:23;;;;;;;1.93;0.87;;;;;;;;;;5034573;28;20943;-73
2021/05/09 07:49:49;;;;;;;3.43;1.67;;;;;;;;;;5036755;28;20413;-72
2021/05/09 07:52:15;;;;;;;1.07;0.83;;;;;;;;;;5039128;28;20414;-74
2021/05/09 07:54:44;;;;;;;2.10;0.70;;;;;;;;;;5036524;28;20455;-72
2021/05/09 07:57:10;;;;;;;1.70;0.83;;;;;;;;;;5042052;28;20408;-74
2021/05/09 07:59:36;;;;;;;1.20;1.00;;;;;;;;;;5036120;28;20425;-72
2021/05/09 08:02:02;;;;;;;0.93;0.60;;;;;;;;;;5042136;28;20379;-72
2021/05/09 08:04:28;;;;;;;0.80;0.60;;;;;;;;;;5035969;28;20418;-74
2021/05/09 08:06:54;;;;;;;1.43;1.23;;;;;;;;;;5030385;28;20489;-73
2021/05/09 08:09:20;;;;;;;1.00;0.90;;;;;;;;;;5030632;28;20419;-70
2021/05/09 08:11:46;;;;;;;1.00;0.80;;;;;;;;;;5030145;28;20404;-73
2021/05/09 08:14:12;;;;;;;0.90;0.80;;;;;;;;;;5029200;28;20428;-74
2021/05/09 08:16:39;;;;;;;0.77;0.57;;;;;;;;;;5030612;28;20471;-72
2021/05/09 08:19:05;;;;;;;1.00;0.90;;;;;;;;;;5028867;28;20419;-73
2021/05/09 08:21:31;;;;;;;1.00;0.70;;;;;;;;;;5030233;28;20375;-73
2021/05/09 08:23:57;;;;;;;0.77;0.57;;;;;;;;;;5030096;28;20521;-72
2021/05/09 08:26:23;;;;;;;1.60;0.80;;;;;;;;;;5037004;28;20411;-72
2021/05/09 08:28:51;;;;;;;1.00;0.70;;;;;;;;;;5037978;28;20477;-74
2021/05/09 08:31:17;;;;;;;4.00;2.43;;;;;;;;;;5039312;28;20423;-74
2021/05/09 08:33:44;;;;;;;1.20;0.80;;;;;;;;;;5040796;28;20764;-74
2021/05/09 08:36:12;;;;;;;0.80;0.70;;;;;;;;;;5038579;28;20436;-74
2021/05/09 08:38:40;;;;;;;1.00;0.60;;;;;;;;;;5035322;28;20439;-75
2021/05/09 08:41:06;;;;;;;1.73;1.20;;;;;;;;;;5029718;28;20468;-73
2021/05/09 08:43:33;;;;;;;1.00;0.80;;;;;;;;;;5030245;28;20463;-72
2021/05/09 08:46:00;;;;;;;0.90;0.63;;;;;;;;;;5030114;28;20404;-73
2021/05/09 08:48:31;;;;;;;1.00;0.87;;;;;;;;;;5029852;28;20404;-72
2021/05/09 08:50:57;;;;;;;1.70;0.93;;;;;;;;;;5029801;28;20404;-73
2021/05/09 08:53:26;;;;;;;1.10;0.97;;;;;;;;;;5030004;28;20423;-73
2021/05/09 08:55:52;;;;;;;0.80;0.63;;;;;;;;;;5045971;22;20499;-73
2021/05/09 08:58:18;;;;;;;1.57;1.23;;;;;;;;;;5033372;28;20438;-71
2021/05/09 09:00:44;;;;;;;0.90;0.80;;;;;;;;;;5033479;28;20450;-70
2021/05/09 09:03:12;;;;;;;2.30;1.30;;;;;;;;;;5028124;28;20471;-70
2021/05/09 09:05:40;;;;;;;2.00;0.97;;;;;;;;;;5029692;28;20420;-71
2021/05/09 09:08:07;;;;;;;1.30;1.20;;;;;;;;;;5025713;28;20486;-69
2021/05/09 09:10:36;;;;;;;1.67;0.87;;;;;;;;;;5032796;28;20400;-71
2021/05/09 09:13:03;;;;;;;1.03;0.60;;;;;;;;;;5033186;28;20435;-69
2021/05/09 09:15:50;;;;;;;1.03;0.90;;;;;;;;;;5033277;28;20856;-71
2021/05/09 09:18:26;;;;;;;0.90;0.67;;;;;;;;;;5032830;28;20798;-70
2021/05/09 09:20:52;;;;;;;1.00;0.90;;;;;;;;;;5029406;28;20431;-69
2021/05/09 09:23:18;;;;;;;1.40;0.97;;;;;;;;;;5032600;28;20486;-70
2021/05/09 09:25:44;;;;;;;0.80;0.50;;;;;;;;;;5030171;28;20419;-69
2021/05/09 09:28:10;;;;;;;0.80;0.60;;;;;;;;;;5032605;28;20469;-70
2021/05/09 09:30:50;;;;;;;1.10;0.93;;;;;;;;;;5031844;28;20422;-70
2021/05/09 09:33:17;;;;;;;0.90;0.70;;;;;;;;;;5032834;28;20416;-71
2021/05/09 09:35:44;;;;;;;0.87;0.63;;;;;;;;;;5033053;28;20499;-69
2021/05/09 09:38:28;;;;;;;1.00;0.70;;;;;;;;;;5032497;28;20435;-70
2021/05/09 09:41:06;;;;;;;0.90;0.63;;;;;;;;;;5032303;28;20677;-70
2021/05/09 09:43:32;;;;;;;0.90;0.77;;;;;;;;;;5032562;28;20459;-70
2021/05/09 09:45:58;;;;;;;0.80;0.70;;;;;;;;;;5032944;28;20773;-70
2021/05/09 09:48:40;;;;;;;1.03;0.80;;;;;;;;;;5031518;28;20425;-69
2021/05/09 09:51:09;;;;;;;1.27;0.80;;;;;;;;;;5030780;28;20412;-70
2021/05/09 09:53:38;;;;;;;1.93;0.80;;;;;;;;;;5022953;28;20421;-70
2021/05/09 09:56:19;;;;;;;0.70;0.50;;;;;;;;;;5021985;28;20436;-71
2021/05/09 09:58:51;;;;;;;0.80;0.63;;;;;;;;;;5029424;28;20468;-70
2021/05/09 10:01:19;;;;;;;1.00;0.90;;;;;;;;;;5031675;28;20415;-68
2021/05/09 10:03:45;;;;;;;0.90;0.80;;;;;;;;;;5032202;28;20483;-70
2021/05/09 10:06:12;;;;;;;2.93;0.87;;;;;;;;;;5030867;28;21103;-67
2021/05/09 10:08:38;;;;;;;0.90;0.67;;;;;;;;;;5032041;28;20420;-70
2021/05/09 10:11:05;;;;;;;2.20;2.00;;;;;;;;;;5031532;28;20399;-70
2021/05/09 10:13:32;;;;;;;0.80;0.77;;;;;;;;;;5032014;28;20496;-69
2021/05/09 10:15:58;;;;;;;1.83;0.83;;;;;;;;;;5031571;28;20424;-71
2021/05/09 10:18:25;;;;;;;4.00;0.93;;;;;;;;;;5031809;28;20473;-69
2021/05/09 10:20:51;;;;;;;0.90;0.67;;;;;;;;;;5027786;28;20542;-70
2021/05/09 10:23:18;;;;;;;1.00;0.70;;;;;;;;;;5028297;28;20469;-70
2021/05/09 10:25:47;;;;;;;1.20;0.90;;;;;;;;;;5028588;28;20794;-69
2021/05/09 10:28:14;;;;;;;1.10;0.80;;;;;;;;;;5031849;28;20978;-68
2021/05/09 10:30:58;;;;;;;12.13;1.00;;;;;;;;;;5029808;28;20435;-70
2021/05/09 10:33:41;;;;;;;0.90;0.60;;;;;;;;;;5031105;28;20639;-70
2021/05/09 10:36:30;;;;;;;3.43;0.67;;;;;;;;;;5031454;28;20899;-70
2021/05/09 10:39:18;;;;;;;2.03;1.17;;;;;;;;;;5028090;28;20783;-70
2021/05/09 10:41:53;;;;;;;0.80;0.67;;;;;;;;;;5031601;28;20453;-70
2021/05/09 10:44:38;;;;;;;0.90;0.80;;;;;;;;;;5030979;28;20462;-70
2021/05/09 10:47:05;;;;;;;1.53;1.13;;;;;;;;;;5031392;28;20400;-69
2021/05/09 10:49:31;;;;;;;1.20;0.73;;;;;;;;;;5030668;28;20431;-66
2021/05/09 10:51:57;;;;;;;2.00;0.80;;;;;;;;;;5030917;28;20469;-76
2021/05/09 10:54:24;;;;;;;0.93;0.60;;;;;;;;;;5013715;28;20439;-70
2021/05/09 10:56:51;;;;;;;1.20;0.73;;;;;;;;;;5028329;28;20405;-71
2021/05/09 10:59:17;;;;;;;1.47;0.87;;;;;;;;;;5025244;28;20447;-71
2021/05/09 11:01:43;;;;;;;0.90;0.80;;;;;;;;;;5031091;28;20904;-70
2021/05/09 11:04:10;;;;;;;0.80;0.70;;;;;;;;;;5031439;28;20455;-69
2021/05/09 11:06:43;;;;;;;1.90;1.33;;;;;;;;;;5031356;28;20407;-70
2021/05/09 11:09:14;;;;;;;1.77;1.20;;;;;;;;;;5029448;28;20838;-70
2021/05/09 11:11:39;;;;;;;2.70;0.60;;;;;;;;;;5026607;28;20431;-71
2021/05/09 11:14:08;;;;;;;0.80;0.60;;;;;;;;;;5011903;28;20404;-70
2021/05/09 11:16:37;;;;;;;1.10;0.70;;;;;;;;;;5030947;28;20187;-71
2021/05/09 11:19:10;;;;;;;0.80;0.60;;;;;;;;;;5030238;28;20446;-57
2021/05/09 11:21:49;;;;;;;0.70;0.60;;;;;;;;;;5030398;28;20492;-59
2021/05/09 11:24:20;;;;;;;821.50;755.03;;;;;;;;;;5030605;28;20899;-70
2021/05/09 11:26:47;;;;;;;0.80;0.77;;;;;;;;;;5031549;28;21073;-62
2021/05/09 11:29:14;;;;;;;1.43;1.33;;;;;;;;;;5030201;28;20504;-61
2021/05/09 11:31:50;;;;;;;164.43;150.57;;;;;;;;;;5030555;28;20399;-58
2021/05/09 11:34:17;;;;;;;7.23;1.20;;;;;;;;;;5030896;28;20412;-60
2021/05/09 11:36:44;;;;;;;4.77;4.50;;;;;;;;;;5029362;28;20550;-62
2021/05/09 11:39:11;;;;;;;890.37;824.87;;;;;;;;;;5030168;28;20808;-61
2021/05/09 11:41:49;;;;;;;845.20;785.27;;;;;;;;;;5029374;28;20416;-70
2021/05/09 11:44:15;;;;;;;944.03;872.83;;;;;;;;;;5027414;28;20452;-69
2021/05/09 11:46:41;;;;;;;956.50;886.23;;;;;;;;;;5030648;28;20553;-70
2021/05/09 11:49:16;;;;;;;921.60;855.27;;;;;;;;;;5026827;28;20438;-70
2021/05/09 11:51:48;;;;;;;41.73;37.90;;;;;;;;;;5028871;28;20976;-70
2021/05/09 11:54:15;;;;;;;0.90;0.63;;;;;;;;;;5030246;28;20518;-70
2021/05/09 11:57:00;;;;;;;164.77;154.23;;;;;;;;;;5030780;28;20407;-68
2021/05/09 11:59:29;;;;;;;412.20;380.13;;;;;;;;;;5030023;28;20515;-70
2021/05/09 12:01:56;;;;;;;1.53;0.70;;;;;;;;;;5030415;28;20423;-70
2021/05/09 12:04:23;;;;;;;98.13;89.10;;;;;;;;;;5030494;28;20946;-68
2021/05/09 12:06:49;;;;;;;649.53;604.77;;;;;;;;;;5030673;28;20772;-72
2021/05/09 12:09:15;;;;;;;4.30;3.70;;;;;;;;;;5029693;28;20513;-71
2021/05/09 12:11:41;;;;;;;32.37;29.77;;;;;;;;;;5045218;28;20408;-71
2021/05/09 12:14:07;;;;;;;7.30;2.60;;;;;;;;;;5030274;28;20461;-71
2021/05/09 12:17:00;;;;;;;1.10;0.70;;;;;;;;;;5030100;28;20408;-70
2021/05/09 12:19:30;;;;;;;1.00;0.60;;;;;;;;;;5028759;28;20435;-69
2021/05/09 12:21:57;;;;;;;0.90;0.60;;;;;;;;;;5028532;28;20469;-70
2021/05/09 12:24:23;;;;;;;2.43;1.83;;;;;;;;;;5030508;28;20459;-70
2021/05/09 12:26:59;;;;;;;0.70;0.60;;;;;;;;;;5029816;28;20408;-70
2021/05/09 12:29:25;;;;;;;1.27;1.03;;;;;;;;;;5046307;28;20927;-69
2021/05/09 12:31:52;;;;;;;5.80;0.90;;;;;;;;;;5033899;28;20462;-69
2021/05/09 12:34:27;;;;;;;2.00;0.70;;;;;;;;;;5033731;28;20494;-71
2021/05/09 12:37:06;;;;;;;1.00;0.70;;;;;;;;;;5032344;28;20407;-71
2021/05/09 12:39:32;;;;;;;0.80;0.70;;;;;;;;;;5033622;28;20467;-70
2021/05/09 12:42:01;;;;;;;1.37;0.80;;;;;;;;;;5029030;28;20566;-71
2021/05/09 12:44:27;;;;;;;1.00;0.80;;;;;;;;;;5030423;28;20463;-71
2021/05/09 12:46:53;;;;;;;0.97;0.77;;;;;;;;;;5033654;28;20494;-70
2021/05/09 12:49:20;;;;;;;0.90;0.80;;;;;;;;;;5033142;28;20420;-70
2021/05/09 12:52:07;;;;;;;0.80;0.73;;;;;;;;;;5033824;28;20891;-71
2021/05/09 12:54:34;;;;;;;0.70;0.53;;;;;;;;;;5030498;28;20861;-69
2021/05/09 12:57:20;;;;;;;1.63;0.90;;;;;;;;;;5031093;28;20498;-71
2021/05/09 12:59:54;;;;;;;0.70;0.60;;;;;;;;;;5023309;28;20448;-71
2021/05/09 13:02:21;;;;;;;2.10;0.97;;;;;;;;;;5017928;28;20440;-70
2021/05/09 13:04:50;;;;;;;1.07;0.73;;;;;;;;;;5022852;28;20666;-71
2021/05/09 13:07:17;;;;;;;0.90;0.63;;;;;;;;;;5040206;28;20469;-70
2021/05/09 13:09:44;;;;;;;1.03;0.80;;;;;;;;;;5040642;28;20424;-70
2021/05/09 13:12:10;;;;;;;0.70;0.50;;;;;;;;;;5031272;28;20392;-69
2021/05/09 13:14:40;;;;;;;0.80;0.60;;;;;;;;;;5036058;28;20427;-71
2021/05/09 13:17:07;;;;;;;0.80;0.60;;;;;;;;;;5032007;28;20997;-71
2021/05/09 13:19:33;;;;;;;1.23;1.13;;;;;;;;;;5029098;28;20439;-70
2021/05/09 13:21:59;;;;;;;1.40;0.70;;;;;;;;;;5034348;28;20426;-70
2021/05/09 13:24:24;;;;;;;1.20;0.70;;;;;;;;;;5036576;28;20455;-71
2021/05/09 13:26:50;;;;;;;0.93;0.70;;;;;;;;;;5036737;28;20173;-70
2021/05/09 13:29:16;;;;;;;1.47;0.77;;;;;;;;;;5037272;28;20520;-71
2021/05/09 13:31:42;;;;;;;0.90;0.70;;;;;;;;;;5090674;22;20544;-73
2021/05/09 13:34:08;;;;;;;1.63;0.80;;;;;;;;;;5052409;28;20200;-73
2021/05/09 13:36:35;;;;;;;1.00;0.80;;;;;;;;;;5046349;28;20414;-71
2021/05/09 13:39:01;;;;;;;0.80;0.60;;;;;;;;;;5052628;28;20177;-74
2021/05/09 13:41:27;;;;;;;4.50;2.00;;;;;;;;;;5050851;28;20437;-71
2021/05/09 13:43:53;;;;;;;1.00;0.60;;;;;;;;;;5039348;28;20460;-71
2021/05/09 13:46:19;;;;;;;1.93;0.97;;;;;;;;;;5051107;28;20181;-71
2021/05/09 13:48:45;;;;;;;0.97;0.60;;;;;;;;;;5052590;28;20485;-71
2021/05/09 13:51:11;;;;;;;0.83;0.60;;;;;;;;;;5052044;28;20472;-73
2021/05/09 13:53:37;;;;;;;1.17;1.00;;;;;;;;;;5052400;28;20492;-72
2021/05/09 13:56:04;;;;;;;0.90;0.73;;;;;;;;;;5052405;28;20396;-72
2021/05/09 13:58:30;;;;;;;0.80;0.50;;;;;;;;;;5052755;28;20445;-73
2021/05/09 14:00:56;;;;;;;0.70;0.50;;;;;;;;;;5050782;28;20399;-73
2021/05/09 14:03:22;;;;;;;0.80;0.60;;;;;;;;;;5052063;28;20789;-72
2021/05/09 14:05:48;;;;;;;0.77;0.57;;;;;;;;;;5049443;28;20941;-70
2021/05/09 14:08:14;;;;;;;1.00;0.70;;;;;;;;;;5035173;28;20404;-70
2021/05/09 14:10:40;;;;;;;0.70;0.53;;;;;;;;;;5037711;28;20414;-69
2021/05/09 14:13:06;;;;;;;1.20;0.83;;;;;;;;;;5051226;28;20438;-71
2021/05/09 14:15:39;;;;;;;0.80;0.60;;;;;;;;;;5052225;28;20817;-70
2021/05/09 14:18:05;;;;;;;0.70;0.50;;;;;;;;;;5051881;28;20415;-70
2021/05/09 14:20:30;;;;;;;0.70;0.47;;;;;;;;;;5038886;28;20415;-70
2021/05/09 14:22:56;;;;;;;0.80;0.63;;;;;;;;;;5041901;28;20204;-70
2021/05/09 14:25:22;;;;;;;0.70;0.50;;;;;;;;;;5051638;28;20169;-70
2021/05/09 14:27:49;;;;;;;1.23;1.00;;;;;;;;;;5051080;28;20228;-69
2021/05/09 14:30:15;;;;;;;1.43;0.80;;;;;;;;;;5051433;28;20976;-69
2021/05/09 14:32:42;;;;;;;1.70;0.57;;;;;;;;;;5047730;28;20496;-69
2021/05/09 14:35:08;;;;;;;0.70;0.50;;;;;;;;;;5044374;28;20426;-70
2021/05/09 14:37:34;;;;;;;0.80;0.60;;;;;;;;;;5033869;28;20938;-69
2021/05/09 14:40:00;;;;;;;0.70;0.50;;;;;;;;;;5043476;28;20419;-70
2021/05/09 14:42:26;;;;;;;1.07;0.80;;;;;;;;;;5051658;28;20261;-70
2021/05/09 14:44:52;;;;;;;0.80;0.60;;;;;;;;;;5051524;28;20469;-70